Time;durP1;ratioP1;P1;durP2;ratioP2;P2;SDS_P1;SDS_P2;PMS_P1;PMS_P2;Temp;Humidity;BMP_temperature;BMP_pressure;BME280_temperature;BME280_humidity;BME280_pressure;Samples;Min_cycle;Max_cycle;Signal;HPM_P1;HPM_P2
2023/04/16 00:02:20;;;;;;;0.00;0.00;;;;;;;12.48;72.11;101507.38;7356742;19;20031;-61
2023/04/16 00:04:45;;;;;;;0.10;0.10;;;;;;;12.48;72.24;101507.38;7358577;19;20041;-61
2023/04/16 00:07:11;;;;;;;0.00;0.00;;;;;;;12.39;72.47;101491.81;7358563;19;20070;-62
2023/04/16 00:09:36;;;;;;;0.10;0.10;;;;;;;12.52;72.46;101514.31;7354904;19;20045;-61
2023/04/16 00:12:02;;;;;;;0.00;0.00;;;;;;;12.53;72.34;101516.03;7356728;19;20443;-61
2023/04/16 00:14:28;;;;;;;0.00;0.00;;;;;;;12.55;72.36;101511.59;7357876;19;20022;-62
2023/04/16 00:16:54;;;;;;;0.00;0.00;;;;;;;12.52;72.20;101501.19;7358064;19;20050;-61
2023/04/16 00:19:19;;;;;;;0.00;0.00;;;;;;;12.58;72.41;101511.56;7355236;19;20021;-61
2023/04/16 00:21:44;;;;;;;0.10;0.10;;;;;;;12.60;72.66;101507.16;7355372;19;22531;-61
2023/04/16 00:24:10;;;;;;;0.00;0.00;;;;;;;12.61;72.25;101514.13;7350242;19;20019;-61
2023/04/16 00:26:35;;;;;;;0.00;0.00;;;;;;;12.60;72.74;101506.28;7354526;19;20002;-61
2023/04/16 00:29:01;;;;;;;0.00;0.00;;;;;;;12.65;72.19;101507.94;7354623;19;20015;-61
2023/04/16 00:31:31;;;;;;;0.00;0.00;;;;;;;12.69;71.88;101521.84;7352630;19;20033;-61
2023/04/16 00:33:57;;;;;;;0.00;0.00;;;;;;;12.53;72.46;101479.34;7351306;19;19998;-62
2023/04/16 00:36:24;;;;;;;0.10;0.10;;;;;;;12.70;72.44;101507.84;7357125;19;20006;-61
2023/04/16 00:38:50;;;;;;;0.00;0.00;;;;;;;12.70;72.44;101500.00;7351966;19;20007;-61
2023/04/16 00:41:15;;;;;;;0.00;0.00;;;;;;;12.69;72.25;101495.66;7354282;19;20014;-61
2023/04/16 00:43:41;;;;;;;0.00;0.00;;;;;;;12.71;72.61;101499.94;7354544;19;20031;-61
2023/04/16 00:46:07;;;;;;;0.00;0.00;;;;;;;12.66;72.59;101487.81;7358050;19;20042;-61
2023/04/16 00:48:33;;;;;;;0.10;0.10;;;;;;;12.73;72.72;101498.19;7357351;19;20022;-62
2023/04/16 00:51:00;;;;;;;0.00;0.00;;;;;;;12.71;72.29;101494.72;7356978;19;20052;-61
2023/04/16 00:53:26;;;;;;;0.00;0.00;;;;;;;12.74;72.55;101488.56;7356824;19;20014;-61
2023/04/16 00:55:52;;;;;;;0.10;0.10;;;;;;;12.75;72.71;101495.53;7356602;19;20019;-61
2023/04/16 00:58:18;;;;;;;0.00;0.00;;;;;;;12.76;72.45;101485.91;7355142;19;20594;-61
2023/04/16 01:00:43;;;;;;;0.00;0.00;;;;;;;12.75;72.32;101485.03;7349540;19;20082;-61
2023/04/16 01:03:09;;;;;;;0.00;0.00;;;;;;;12.66;72.60;101466.88;7358651;19;20395;-62
2023/04/16 01:05:35;;;;;;;0.00;0.00;;;;;;;12.70;72.62;101477.25;7343414;19;20023;-61
2023/04/16 01:08:01;;;;;;;0.00;0.00;;;;;;;12.78;72.61;101490.22;7352265;19;20021;-62
2023/04/16 01:10:26;;;;;;;0.00;0.00;;;;;;;12.76;72.46;101485.91;7356710;19;20023;-61
2023/04/16 01:12:52;;;;;;;0.00;0.00;;;;;;;12.78;72.71;101489.38;7354509;19;20438;-62
2023/04/16 01:15:17;;;;;;;0.00;0.00;;;;;;;12.78;72.60;101478.88;7353220;19;20018;-62
2023/04/16 01:17:46;;;;;;;0.00;0.00;;;;;;;12.67;72.27;101461.63;7353579;19;20014;-61
2023/04/16 01:20:11;;;;;;;0.00;0.00;;;;;;;12.79;72.43;101488.47;7356605;19;20034;-62
2023/04/16 01:22:36;;;;;;;0.03;0.03;;;;;;;12.77;72.92;101492.88;7353817;19;20049;-61
2023/04/16 01:25:02;;;;;;;0.00;0.00;;;;;;;12.78;72.92;101484.13;7354902;19;20009;-61
2023/04/16 01:27:27;;;;;;;0.00;0.00;;;;;;;12.78;72.76;101494.63;7355764;19;20459;-61
2023/04/16 01:29:55;;;;;;;0.03;0.03;;;;;;;12.79;72.74;101485.84;7347187;19;20006;-62
2023/04/16 01:32:20;;;;;;;0.05;0.05;;;;;;;12.78;72.51;101484.13;7349287;19;20038;-62
2023/04/16 01:34:46;;;;;;;0.05;0.05;;;;;;;12.64;72.64;101472.16;7353680;19;20011;-62
2023/04/16 01:37:11;;;;;;;0.00;0.00;;;;;;;12.79;72.60;101491.09;7354236;19;20573;-63
2023/04/16 01:39:36;;;;;;;0.00;0.00;;;;;;;12.79;72.83;101491.97;7349948;19;20014;-62
2023/04/16 01:42:02;;;;;;;0.00;0.00;;;;;;;12.79;72.68;101486.72;7353526;19;20006;-61
2023/04/16 01:44:27;;;;;;;0.00;0.00;;;;;;;12.79;72.90;101485.84;7352254;19;20010;-62
2023/04/16 01:46:53;;;;;;;0.10;0.10;;;;;;;12.80;72.59;101487.56;7353405;19;20018;-62
2023/04/16 01:49:18;;;;;;;0.00;0.00;;;;;;;12.80;73.20;101492.81;7355981;19;20029;-61
2023/04/16 01:51:44;;;;;;;0.00;0.00;;;;;;;12.81;73.11;101489.28;7352944;19;20078;-62
2023/04/16 01:54:10;;;;;;;0.00;0.00;;;;;;;12.81;72.95;101489.28;7355424;19;20015;-62
2023/04/16 01:56:35;;;;;;;0.00;0.00;;;;;;;12.79;73.08;101488.47;7346942;19;20034;-61
2023/04/16 01:59:00;;;;;;;0.10;0.10;;;;;;;12.81;72.95;101491.91;7343017;19;20340;-62
2023/04/16 02:01:26;;;;;;;0.10;0.10;;;;;;;12.67;73.06;101471.22;7349633;19;20014;-61
2023/04/16 02:03:52;;;;;;;0.00;0.00;;;;;;;12.81;72.83;101494.53;7349983;19;20029;-61
2023/04/16 02:06:17;;;;;;;0.00;0.00;;;;;;;12.81;72.71;101494.53;7349517;19;20022;-61
2023/04/16 02:08:43;;;;;;;0.00;0.00;;;;;;;12.82;72.82;101493.63;7352271;19;20006;-62
2023/04/16 02:11:08;;;;;;;0.00;0.00;;;;;;;12.82;72.78;101494.50;7348033;19;20018;-62
2023/04/16 02:13:34;;;;;;;0.00;0.00;;;;;;;12.76;73.11;101489.38;7346779;19;20010;-63
2023/04/16 02:15:59;;;;;;;0.05;0.05;;;;;;;12.83;73.18;101498.00;7350238;19;20095;-62
2023/04/16 02:18:25;;;;;;;0.10;0.10;;;;;;;12.78;73.09;101486.75;7346575;19;20030;-61
2023/04/16 02:20:50;;;;;;;0.00;0.00;;;;;;;12.83;73.15;101500.63;7351722;19;20031;-62
2023/04/16 02:23:16;;;;;;;0.00;0.00;;;;;;;12.84;72.87;101494.50;7351453;19;20752;-62
2023/04/16 02:25:45;;;;;;;0.00;0.00;;;;;;;12.84;73.36;101489.25;7350525;19;20010;-61
2023/04/16 02:28:13;;;;;;;0.00;0.00;;;;;;;12.85;73.31;101485.72;7346435;19;20598;-62
2023/04/16 02:30:39;;;;;;;0.10;0.10;;;;;;;12.84;73.40;101486.63;7347038;19;20858;-61
2023/04/16 02:33:07;;;;;;;0.10;0.10;;;;;;;12.85;73.37;101486.59;7344404;19;20581;-62
2023/04/16 02:35:33;;;;;;;0.00;0.00;;;;;;;12.86;73.37;101492.69;7349155;19;20015;-62
2023/04/16 02:37:59;;;;;;;0.00;0.00;;;;;;;12.80;73.16;101488.44;7351231;19;20033;-62
2023/04/16 02:40:25;;;;;;;0.10;0.10;;;;;;;12.87;73.21;101495.28;7346301;19;20470;-62
2023/04/16 02:42:52;;;;;;;0.00;0.00;;;;;;;12.88;73.04;101493.53;7348283;19;20052;-62
2023/04/16 02:45:18;;;;;;;0.00;0.00;;;;;;;12.88;73.15;101496.16;7356953;19;20049;-61
2023/04/16 02:47:43;;;;;;;0.00;0.00;;;;;;;12.87;73.49;101494.41;7352265;19;20471;-61
2023/04/16 02:50:09;;;;;;;0.00;0.00;;;;;;;12.88;73.04;101490.91;7357045;19;20025;-61
2023/04/16 02:52:34;;;;;;;0.00;0.00;;;;;;;12.91;73.27;101490.84;7357755;19;20010;-62
2023/04/16 02:55:00;;;;;;;0.10;0.10;;;;;;;12.90;72.95;101494.38;7349008;19;20792;-61
2023/04/16 02:57:25;;;;;;;0.00;0.00;;;;;;;12.89;73.14;101482.16;7356688;19;20021;-62
2023/04/16 02:59:50;;;;;;;0.08;0.08;;;;;;;12.81;73.38;101473.56;7357506;19;20088;-61
2023/04/16 03:02:16;;;;;;;0.00;0.00;;;;;;;12.92;73.33;101484.69;7351134;19;20018;-62
2023/04/16 03:04:41;;;;;;;0.00;0.00;;;;;;;12.57;73.15;101430.34;7335506;19;20744;-62
2023/04/16 03:07:08;;;;;;;0.00;0.00;;;;;;;12.94;73.32;101485.56;7352904;19;20006;-62
2023/04/16 03:09:34;;;;;;;0.10;0.10;;;;;;;12.94;73.22;101489.03;7354352;19;20018;-62
2023/04/16 03:12:00;;;;;;;0.00;0.00;;;;;;;12.95;73.03;101482.03;7358691;19;20006;-62
2023/04/16 03:14:26;;;;;;;0.00;0.00;;;;;;;12.96;73.34;101483.75;7356143;19;20021;-62
2023/04/16 03:16:51;;;;;;;0.00;0.00;;;;;;;12.96;73.00;101482.00;7359389;19;20015;-62
2023/04/16 03:19:17;;;;;;;0.00;0.00;;;;;;;12.94;73.30;101481.16;7339864;19;20013;-62
2023/04/16 03:21:42;;;;;;;0.00;0.00;;;;;;;12.96;72.99;101482.00;7357484;19;20032;-62
2023/04/16 03:24:08;;;;;;;0.00;0.00;;;;;;;12.96;72.89;101478.50;7356127;19;20045;-62
2023/04/16 03:26:33;;;;;;;0.00;0.00;;;;;;;12.92;73.18;101477.69;7356614;19;20434;-62
2023/04/16 03:28:58;;;;;;;0.00;0.00;;;;;;;12.97;73.21;101480.22;7354538;19;20014;-62
2023/04/16 03:31:24;;;;;;;0.10;0.10;;;;;;;12.92;73.24;101472.44;7355977;19;20002;-63
2023/04/16 03:33:49;;;;;;;0.08;0.08;;;;;;;12.96;73.30;101479.38;7353862;19;20014;-62
2023/04/16 03:36:15;;;;;;;0.10;0.10;;;;;;;12.96;73.19;101474.13;7357908;19;20014;-62
2023/04/16 03:38:40;;;;;;;0.00;0.00;;;;;;;12.97;73.26;101480.22;7358822;19;20018;-62
2023/04/16 03:41:05;;;;;;;0.00;0.00;;;;;;;12.93;73.24;101473.34;7357361;19;20018;-61
2023/04/16 03:43:31;;;;;;;0.10;0.10;;;;;;;12.96;73.26;101481.13;7354723;19;20104;-62
2023/04/16 03:45:56;;;;;;;0.10;0.10;;;;;;;12.80;73.13;101450.88;7357291;19;20010;-61
2023/04/16 03:48:22;;;;;;;0.10;0.10;;;;;;;12.95;73.20;101479.41;7358245;19;20033;-62
2023/04/16 03:50:47;;;;;;;0.00;0.00;;;;;;;12.93;73.48;101474.22;7356584;19;20006;-61
2023/04/16 03:53:13;;;;;;;0.00;0.00;;;;;;;12.90;73.16;101474.25;7356541;19;20014;-62
2023/04/16 03:55:39;;;;;;;0.00;0.00;;;;;;;12.93;73.15;101468.97;7354033;19;20025;-62
2023/04/16 03:58:05;;;;;;;0.00;0.00;;;;;;;12.94;73.48;101470.69;7356882;19;20046;-61
2023/04/16 04:00:30;;;;;;;0.00;0.00;;;;;;;12.93;73.29;101470.72;7356030;19;20099;-61
2023/04/16 04:02:55;;;;;;;0.00;0.00;;;;;;;12.93;73.19;101466.34;7357610;19;20011;-61
2023/04/16 04:05:21;;;;;;;0.00;0.00;;;;;;;12.81;73.40;101447.34;7355573;19;20749;-61
2023/04/16 04:07:46;;;;;;;0.00;0.00;;;;;;;12.92;73.45;101461.97;7357499;19;20006;-62
2023/04/16 04:10:12;;;;;;;0.00;0.00;;;;;;;12.92;73.24;101467.22;7352737;19;20010;-62
2023/04/16 04:12:37;;;;;;;0.00;0.00;;;;;;;12.91;73.38;101459.38;7356327;19;20058;-62
2023/04/16 04:15:03;;;;;;;0.10;0.10;;;;;;;12.92;73.59;101458.47;7357354;19;20039;-62
2023/04/16 04:17:28;;;;;;;0.10;0.10;;;;;;;12.93;73.49;101460.25;7360175;19;20007;-61
2023/04/16 04:19:54;;;;;;;0.00;0.00;;;;;;;12.92;73.50;101461.09;7357178;19;20077;-62
2023/04/16 04:22:19;;;;;;;0.00;0.00;;;;;;;12.92;73.36;101461.09;7355407;19;20051;-62
2023/04/16 04:24:44;;;;;;;0.00;0.00;;;;;;;12.92;73.27;101458.47;7355297;19;20018;-62
2023/04/16 04:27:10;;;;;;;0.00;0.00;;;;;;;12.90;73.50;101452.41;7356386;19;20022;-61
2023/04/16 04:29:35;;;;;;;0.00;0.00;;;;;;;12.91;73.19;101454.16;7357563;19;20965;-61
2023/04/16 04:32:01;;;;;;;0.10;0.10;;;;;;;12.93;73.65;101452.38;7355338;19;20602;-62
2023/04/16 04:34:26;;;;;;;0.00;0.00;;;;;;;12.93;73.73;101457.63;7354667;19;20895;-62
2023/04/16 04:36:51;;;;;;;0.00;0.00;;;;;;;12.94;73.30;101464.59;7355206;19;20010;-61
2023/04/16 04:39:20;;;;;;;0.00;0.00;;;;;;;12.93;73.75;101466.34;7356662;19;20035;-62
2023/04/16 04:41:46;;;;;;;0.00;0.00;;;;;;;12.95;73.86;101471.53;7353854;19;20014;-63
2023/04/16 04:44:12;;;;;;;0.00;0.00;;;;;;;12.95;73.64;101479.41;7355041;19;20078;-61
2023/04/16 04:46:37;;;;;;;0.00;0.00;;;;;;;12.96;73.39;101473.25;7356435;19;20077;-62
2023/04/16 04:49:02;;;;;;;0.05;0.05;;;;;;;12.96;73.39;101475.88;7356404;19;20791;-61
2023/04/16 04:51:28;;;;;;;0.00;0.00;;;;;;;12.97;73.77;101475.00;7352930;19;20021;-61
2023/04/16 04:53:53;;;;;;;0.00;0.00;;;;;;;12.97;73.66;101482.84;7356493;19;20574;-61
2023/04/16 04:56:19;;;;;;;0.10;0.10;;;;;;;12.99;73.34;101478.47;7351936;19;20025;-61
2023/04/16 04:58:45;;;;;;;0.10;0.10;;;;;;;12.98;73.79;101482.84;7355625;19;20023;-62
2023/04/16 05:01:10;;;;;;;0.00;0.00;;;;;;;12.99;73.29;101483.69;7355222;19;20089;-62
2023/04/16 05:03:35;;;;;;;0.00;0.00;;;;;;;12.96;73.59;101486.38;7354165;19;20014;-62
2023/04/16 05:06:01;;;;;;;0.00;0.00;;;;;;;13.01;73.38;101483.66;7354035;19;20017;-62
2023/04/16 05:08:26;;;;;;;0.00;0.00;;;;;;;13.02;73.37;101494.09;7357148;19;20030;-62
2023/04/16 05:10:52;;;;;;;0.10;0.10;;;;;;;12.96;73.71;101475.88;7355470;19;20022;-61
2023/04/16 05:13:17;;;;;;;0.05;0.05;;;;;;;12.90;73.43;101469.00;7353672;19;20014;-62
2023/04/16 05:15:44;;;;;;;0.00;0.00;;;;;;;13.04;73.80;101496.72;7354926;19;20039;-62
2023/04/16 05:18:10;;;;;;;0.05;0.05;;;;;;;13.04;73.42;101500.19;7354744;19;20014;-61
2023/04/16 05:20:36;;;;;;;0.00;0.00;;;;;;;13.05;73.71;101498.44;7351812;19;20044;-61
2023/04/16 05:23:02;;;;;;;0.00;0.00;;;;;;;13.05;73.56;101499.31;7352493;19;20015;-62
2023/04/16 05:25:27;;;;;;;0.00;0.00;;;;;;;13.01;73.46;101492.38;7352998;19;20014;-61
2023/04/16 05:27:53;;;;;;;0.10;0.10;;;;;;;13.06;73.67;101495.78;7357540;19;20006;-62
2023/04/16 05:30:18;;;;;;;0.10;0.10;;;;;;;13.06;73.24;101493.16;7353949;19;20375;-62
2023/04/16 05:32:44;;;;;;;0.10;0.10;;;;;;;13.06;73.55;101490.53;7355452;19;20015;-61
2023/04/16 05:35:09;;;;;;;0.00;0.00;;;;;;;13.06;73.40;101490.53;7353229;19;20018;-62
2023/04/16 05:37:35;;;;;;;0.10;0.10;;;;;;;13.06;73.41;101492.28;7353322;19;20017;-62
2023/04/16 05:40:01;;;;;;;0.03;0.03;;;;;;;13.04;73.41;101492.34;7355543;19;20022;-61
2023/04/16 05:42:26;;;;;;;0.00;0.00;;;;;;;13.03;73.14;101490.63;7353949;19;20007;-63
2023/04/16 05:44:51;;;;;;;0.00;0.00;;;;;;;13.03;73.46;101497.59;7354305;19;20219;-62
2023/04/16 05:47:17;;;;;;;0.00;0.00;;;;;;;13.02;73.59;101490.63;7352306;19;20048;-62
2023/04/16 05:49:42;;;;;;;0.00;0.00;;;;;;;13.02;73.21;101493.25;7353928;19;20058;-61
2023/04/16 05:52:08;;;;;;;0.00;0.00;;;;;;;13.01;73.32;101497.63;7354656;19;20017;-61
2023/04/16 05:54:34;;;;;;;0.00;0.00;;;;;;;13.01;73.29;101504.63;7353348;19;20446;-61
2023/04/16 05:57:00;;;;;;;0.00;0.00;;;;;;;13.02;73.60;101509.84;7353392;19;20018;-61
2023/04/16 05:59:26;;;;;;;0.00;0.00;;;;;;;13.02;73.67;101509.84;7340156;19;20696;-62
2023/04/16 06:01:51;;;;;;;0.00;0.00;;;;;;;13.05;73.26;101509.78;7350598;19;20048;-61
2023/04/16 06:04:17;;;;;;;0.10;0.10;;;;;;;13.06;73.26;101516.75;7350300;19;20030;-62
2023/04/16 06:06:42;;;;;;;0.05;0.05;;;;;;;13.09;72.26;101521.94;7351539;19;20014;-61
2023/04/16 06:09:07;;;;;;;0.00;0.00;;;;;;;13.07;72.54;101518.47;7350498;19;20077;-62
2023/04/16 06:11:33;;;;;;;0.00;0.00;;;;;;;13.05;72.74;101512.41;7352149;19;20014;-62
2023/04/16 06:13:58;;;;;;;0.08;0.08;;;;;;;13.15;72.56;101526.22;7351111;19;20080;-62
2023/04/16 06:16:24;;;;;;;0.00;0.00;;;;;;;13.15;71.85;101521.81;7348117;19;20014;-61
2023/04/16 06:18:49;;;;;;;0.00;0.00;;;;;;;13.18;71.97;101527.03;7354303;19;20424;-61
2023/04/16 06:21:15;;;;;;;0.00;0.00;;;;;;;13.21;71.90;101529.59;7354092;19;20014;-63
2023/04/16 06:23:40;;;;;;;0.00;0.00;;;;;;;13.23;72.33;101527.81;7357123;19;20630;-63
2023/04/16 06:26:05;;;;;;;0.08;0.08;;;;;;;13.27;71.46;101530.38;7355717;19;20107;-62
2023/04/16 06:28:31;;;;;;;0.00;0.00;;;;;;;13.29;71.96;101531.22;7347564;19;20022;-62
2023/04/16 06:30:56;;;;;;;0.00;0.00;;;;;;;13.32;71.36;101539.00;7354949;19;20022;-62
2023/04/16 06:33:22;;;;;;;0.00;0.00;;;;;;;13.34;71.62;101534.59;7356442;19;20022;-62
2023/04/16 06:35:48;;;;;;;0.00;0.00;;;;;;;13.37;71.38;101537.16;7355635;19;20470;-61
2023/04/16 06:38:13;;;;;;;0.08;0.08;;;;;;;13.38;71.23;101539.75;7355185;19;20125;-61
2023/04/16 06:40:39;;;;;;;0.00;0.00;;;;;;;13.41;71.29;101544.06;7356935;19;20034;-61
2023/04/16 06:43:05;;;;;;;0.00;0.00;;;;;;;13.43;71.62;101539.63;7356849;19;20006;-62
2023/04/16 06:45:30;;;;;;;0.03;0.03;;;;;;;13.45;71.08;101553.59;7355209;19;20007;-62
2023/04/16 06:47:57;;;;;;;0.00;0.00;;;;;;;13.47;71.61;101554.41;7356617;19;20023;-62
2023/04/16 06:50:25;;;;;;;0.00;0.00;;;;;;;13.50;71.03;101551.75;7357690;19;20011;-61
2023/04/16 06:52:51;;;;;;;0.00;0.00;;;;;;;13.52;71.44;101552.56;7351712;19;20033;-62
2023/04/16 06:55:16;;;;;;;0.00;0.00;;;;;;;13.39;71.81;101527.50;7358328;19;20006;-62
2023/04/16 06:57:42;;;;;;;0.00;0.00;;;;;;;13.56;71.94;101541.13;7354240;19;20043;-62
2023/04/16 07:00:07;;;;;;;0.00;0.00;;;;;;;13.49;71.63;101529.03;7356874;19;20014;-61
2023/04/16 07:02:33;;;;;;;0.00;0.00;;;;;;;13.33;71.86;101488.25;7353910;19;20039;-62
2023/04/16 07:04:59;;;;;;;0.08;0.08;;;;;;;13.65;71.91;101542.69;7358263;19;20010;-62
2023/04/16 07:07:25;;;;;;;0.00;0.00;;;;;;;13.68;72.37;101553.97;7354815;19;22903;-62
2023/04/16 07:09:50;;;;;;;0.00;0.00;;;;;;;13.71;72.22;101553.91;7329183;19;20088;-62
2023/04/16 07:12:16;;;;;;;0.03;0.03;;;;;;;13.76;72.10;101559.06;7347282;19;20028;-61
2023/04/16 07:14:42;;;;;;;0.00;0.00;;;;;;;13.82;71.33;101556.28;7340025;19;20119;-62
2023/04/16 07:17:07;;;;;;;0.05;0.05;;;;;;;13.85;71.80;101560.63;7347818;19;20012;-61
2023/04/16 07:19:33;;;;;;;0.00;0.00;;;;;;;13.75;71.94;101547.69;7342811;19;21880;-62
2023/04/16 07:21:58;;;;;;;0.00;0.00;;;;;;;13.94;71.90;101571.78;7348076;19;20030;-62
2023/04/16 07:24:24;;;;;;;0.10;0.10;;;;;;;13.97;71.64;101576.09;7336774;19;20017;-62
2023/04/16 07:26:50;;;;;;;0.10;0.10;;;;;;;14.02;71.98;101584.72;7347601;19;20010;-63
2023/04/16 07:29:15;;;;;;;0.00;0.00;;;;;;;14.05;72.13;101584.66;7341438;19;20015;-62
2023/04/16 07:31:40;;;;;;;0.10;0.10;;;;;;;14.08;71.66;101574.06;7341679;19;20015;-61
2023/04/16 07:34:06;;;;;;;0.00;0.00;;;;;;;14.14;71.65;101581.81;7343409;19;20140;-62
2023/04/16 07:36:31;;;;;;;0.00;0.00;;;;;;;14.05;71.39;101558.41;7346870;19;20014;-62
2023/04/16 07:38:57;;;;;;;0.00;0.00;;;;;;;14.22;71.80;101582.50;7341103;19;20025;-62
2023/04/16 07:41:22;;;;;;;0.10;0.10;;;;;;;14.25;71.68;101582.44;7344660;19;20111;-62
2023/04/16 07:43:48;;;;;;;0.00;0.00;;;;;;;14.30;71.59;101584.09;7337888;19;20565;-62
2023/04/16 07:46:13;;;;;;;0.10;0.10;;;;;;;14.35;71.43;101576.97;7342728;19;20426;-62
2023/04/16 07:48:39;;;;;;;0.00;0.00;;;;;;;14.38;71.10;101576.88;7347262;19;21069;-62
2023/04/16 07:51:04;;;;;;;0.00;0.00;;;;;;;14.43;71.36;101575.00;7344037;19;20025;-62
2023/04/16 07:53:30;;;;;;;0.00;0.00;;;;;;;14.47;71.81;101576.66;7346518;19;20600;-62
2023/04/16 07:55:55;;;;;;;0.00;0.00;;;;;;;14.56;71.79;101586.13;7343477;19;20121;-62
2023/04/16 07:58:20;;;;;;;0.00;0.00;;;;;;;14.62;70.89;101584.19;7345687;19;20035;-62
2023/04/16 08:00:46;;;;;;;0.00;0.00;;;;;;;14.56;71.23;101560.69;7342430;19;20015;-61
2023/04/16 08:03:11;;;;;;;0.08;0.08;;;;;;;14.51;71.16;101542.41;7344865;19;20011;-62
2023/04/16 08:05:37;;;;;;;0.10;0.10;;;;;;;14.85;71.06;101590.59;7342269;19;20007;-62
2023/04/16 08:08:02;;;;;;;0.00;0.00;;;;;;;14.93;70.39;101586.88;7346474;19;20041;-63
2023/04/16 08:10:28;;;;;;;0.00;0.00;;;;;;;14.99;70.66;101585.84;7343461;19;20033;-61
2023/04/16 08:12:53;;;;;;;0.05;0.05;;;;;;;15.04;70.66;101584.81;7347972;19;20026;-63
2023/04/16 08:15:18;;;;;;;0.10;0.10;;;;;;;15.12;70.42;101587.25;7338548;19;20011;-60
2023/04/16 08:17:44;;;;;;;0.00;0.00;;;;;;;15.19;69.85;101594.06;7345903;19;20006;-62
2023/04/16 08:20:09;;;;;;;0.00;0.00;;;;;;;15.24;70.18;101591.31;7343834;19;20011;-62
2023/04/16 08:22:35;;;;;;;0.10;0.10;;;;;;;15.28;70.10;101599.06;7345292;19;20347;-62
2023/04/16 08:25:01;;;;;;;0.00;0.00;;;;;;;15.31;70.08;101593.72;7343474;19;20710;-62
2023/04/16 08:27:27;;;;;;;0.10;0.10;;;;;;;15.38;69.84;101604.94;7342727;19;20477;-63
2023/04/16 08:29:52;;;;;;;0.08;0.08;;;;;;;15.42;70.34;101600.47;7344477;19;20960;-63
2023/04/16 08:32:18;;;;;;;0.10;0.10;;;;;;;15.28;69.67;101572.75;7347745;19;20014;-62
2023/04/16 08:34:43;;;;;;;0.10;0.10;;;;;;;15.49;70.30;101604.63;7341274;19;20018;-61
2023/04/16 08:37:09;;;;;;;0.10;0.10;;;;;;;15.52;69.85;101601.94;7346375;19;20031;-62
2023/04/16 08:39:34;;;;;;;0.10;0.10;;;;;;;15.56;69.95;101599.16;7346056;19;20014;-62
2023/04/16 08:42:03;;;;;;;0.10;0.10;;;;;;;15.60;69.88;101602.53;7345273;19;20805;-62
2023/04/16 08:44:32;;;;;;;0.00;0.00;;;;;;;15.67;70.15;101601.50;7311167;19;20031;-61
2023/04/16 08:46:59;;;;;;;0.03;0.03;;;;;;;15.71;70.48;101613.69;7339433;19;20842;-62
2023/04/16 08:49:25;;;;;;;0.10;0.10;;;;;;;15.81;69.97;101614.25;7338091;19;20034;-62
2023/04/16 08:51:53;;;;;;;0.00;0.00;;;;;;;15.89;70.25;101607.00;7337316;19;20037;-62
2023/04/16 08:54:29;;;;;;;0.00;0.00;;;;;;;16.01;69.81;101618.91;7336618;19;20851;-62
2023/04/16 08:56:57;;;;;;;0.10;0.10;;;;;;;16.12;69.62;101616.84;7346849;19;20015;-63
2023/04/16 08:59:23;;;;;;;0.10;0.10;;;;;;;16.22;69.73;101610.38;7343844;19;20018;-62
2023/04/16 09:01:51;;;;;;;0.10;0.10;;;;;;;16.32;70.30;101617.06;7340954;19;20573;-62
2023/04/16 09:04:17;;;;;;;0.00;0.00;;;;;;;16.48;70.00;101611.31;7340838;19;20031;-62
2023/04/16 09:06:44;;;;;;;0.00;0.00;;;;;;;16.58;69.87;101608.31;7344702;19;20010;-62
2023/04/16 09:09:11;;;;;;;0.00;0.00;;;;;;;16.74;69.17;101611.31;7342599;19;20541;-62
2023/04/16 09:11:38;;;;;;;0.00;0.00;;;;;;;16.83;69.25;101616.28;7344452;19;20026;-63
2023/04/16 09:14:08;;;;;;;0.05;0.05;;;;;;;16.93;69.24;101623.88;7342639;19;20033;-62
2023/04/16 09:16:34;;;;;;;0.00;0.00;;;;;;;16.99;69.10;101618.41;7344566;19;20011;-62
2023/04/16 09:18:59;;;;;;;0.10;0.10;;;;;;;17.10;68.22;101626.81;7339676;19;20006;-62
2023/04/16 09:21:25;;;;;;;0.10;0.10;;;;;;;17.16;67.93;101637.13;7339203;19;20569;-62
2023/04/16 09:23:52;;;;;;;0.10;0.10;;;;;;;17.16;68.41;101621.31;7338347;19;20089;-62
2023/04/16 09:26:18;;;;;;;0.03;0.03;;;;;;;17.17;68.23;101622.16;7340967;19;20049;-62
2023/04/16 09:28:45;;;;;;;0.08;0.08;;;;;;;17.25;67.90;101636.81;7344242;19;20030;-61
2023/04/16 09:31:16;;;;;;;0.00;0.00;;;;;;;17.28;67.37;101636.69;7333914;19;20006;-59
2023/04/16 09:33:42;;;;;;;0.00;0.00;;;;;;;17.26;67.65;101642.97;7328134;19;20011;-60
2023/04/16 09:36:08;;;;;;;0.10;0.10;;;;;;;17.18;68.08;101630.00;7337107;19;20100;-60
2023/04/16 09:38:51;;;;;;;0.10;0.10;;;;;;;17.38;67.21;101653.94;7340169;19;20109;-61
2023/04/16 09:41:17;;;;;;;0.10;0.10;;;;;;;17.34;68.10;101657.63;7339245;19;20018;-60
2023/04/16 09:43:58;;;;;;;0.00;0.00;;;;;;;17.39;66.72;101654.81;7339090;19;20754;-60
2023/04/16 09:46:34;;;;;;;0.10;0.10;;;;;;;17.42;67.08;101656.47;7343000;19;20946;-60
2023/04/16 09:49:13;;;;;;;0.00;0.00;;;;;;;17.44;67.25;101652.00;7343511;19;20841;-60
2023/04/16 09:51:47;;;;;;;0.10;0.10;;;;;;;17.46;67.10;101652.81;7340847;19;20011;-61
2023/04/16 09:54:12;;;;;;;0.10;0.10;;;;;;;17.43;67.62;101653.75;7347434;19;20114;-60
2023/04/16 09:56:43;;;;;;;0.10;0.10;;;;;;;17.36;67.45;101645.22;7347986;19;20006;-60
2023/04/16 09:59:19;;;;;;;0.03;0.03;;;;;;;17.57;66.58;101658.56;7345724;19;20010;-61
2023/04/16 10:01:54;;;;;;;0.10;0.10;;;;;;;17.57;66.90;101663.84;7345378;19;20018;-61
2023/04/16 10:04:21;;;;;;;0.10;0.10;;;;;;;17.63;67.11;101669.75;7349014;19;20019;-60
2023/04/16 10:07:06;;;;;;;0.00;0.00;;;;;;;17.77;66.41;101682.50;7346968;19;20023;-60
2023/04/16 10:09:36;;;;;;;0.10;0.10;;;;;;;17.77;67.04;101671.91;7248458;19;2004303;-60
2023/04/16 10:12:02;;;;;;;0.10;0.10;;;;;;;17.81;66.81;101681.47;7345817;19;20930;-60
2023/04/16 10:14:27;;;;;;;0.10;0.10;;;;;;;17.87;67.13;101689.16;7350031;19;20022;-60
2023/04/16 10:16:54;;;;;;;0.10;0.10;;;;;;;17.93;67.23;101695.13;7347420;19;20006;-60
2023/04/16 10:19:20;;;;;;;0.10;0.10;;;;;;;17.86;67.33;101676.88;7345771;19;20033;-60
2023/04/16 10:21:47;;;;;;;0.10;0.10;;;;;;;17.89;67.21;101674.13;7346585;19;20018;-60
2023/04/16 10:24:15;;;;;;;0.10;0.10;;;;;;;18.04;66.36;101700.88;7348368;19;20019;-60
2023/04/16 10:26:41;;;;;;;0.10;0.10;;;;;;;17.91;66.60;101667.91;7343528;19;20014;-60
2023/04/16 10:29:07;;;;;;;0.10;0.10;;;;;;;18.10;67.00;101690.09;7346568;19;20821;-60
2023/04/16 10:31:34;;;;;;;0.10;0.10;;;;;;;18.12;67.50;101698.81;7329501;19;20010;-60
2023/04/16 10:34:01;;;;;;;0.10;0.10;;;;;;;18.15;67.00;101699.56;7349326;19;20017;-61
2023/04/16 10:36:26;;;;;;;0.10;0.10;;;;;;;18.19;67.01;101700.28;7348587;19;20063;-61
2023/04/16 10:38:57;;;;;;;0.10;0.10;;;;;;;18.26;66.43;101701.78;7350584;19;20757;-60
2023/04/16 10:41:25;;;;;;;0.10;0.10;;;;;;;18.25;67.33;101694.78;7350596;19;20042;-60
2023/04/16 10:43:51;;;;;;;0.10;0.10;;;;;;;18.29;67.35;101700.78;7347042;19;20006;-61
2023/04/16 10:46:25;;;;;;;0.10;0.10;;;;;;;18.40;65.93;101691.53;7347937;19;20018;-60
2023/04/16 10:48:53;;;;;;;0.10;0.10;;;;;;;18.38;66.86;101685.44;7349416;19;20010;-60
2023/04/16 10:51:33;;;;;;;0.10;0.10;;;;;;;18.44;66.44;101680.81;7347159;19;20017;-60
2023/04/16 10:54:07;;;;;;;0.10;0.10;;;;;;;18.58;66.64;101697.00;7331567;19;20015;-60
2023/04/16 10:56:33;;;;;;;0.10;0.10;;;;;;;18.60;66.86;101689.84;7348719;19;20628;-60
2023/04/16 10:58:59;;;;;;;0.10;0.10;;;;;;;18.69;66.27;101688.66;7347128;19;20022;-60
2023/04/16 11:01:33;;;;;;;0.10;0.10;;;;;;;18.82;66.00;101685.47;7348791;19;20983;-60
2023/04/16 11:04:18;;;;;;;0.10;0.10;;;;;;;18.86;65.46;101689.72;7338506;19;20624;-61
2023/04/16 11:07:05;;;;;;;0.10;0.10;;;;;;;18.99;65.29;101678.59;7350521;19;20784;-59
2023/04/16 11:09:53;;;;;;;0.00;0.00;;;;;;;19.15;65.27;101682.31;7349482;19;20908;-60
2023/04/16 11:12:26;;;;;;;0.10;0.10;;;;;;;19.19;65.41;101689.19;7349216;19;20692;-60
2023/04/16 11:15:08;;;;;;;0.10;0.10;;;;;;;19.30;65.34;101681.63;7350666;19;20006;-62
2023/04/16 11:17:45;;;;;;;0.00;0.00;;;;;;;19.40;65.54;101682.97;7347597;19;20013;-60
2023/04/16 11:20:18;;;;;;;0.10;0.10;;;;;;;19.53;65.90;101685.09;7350199;19;20741;-60
2023/04/16 11:22:44;;;;;;;0.10;0.10;;;;;;;19.66;65.65;101680.97;7347032;19;20013;-61